createdAt,value
2019-06-26T00:00:40.783Z,8.93
2019-06-26T00:03:09.776Z,9.93
2019-06-26T00:05:38.675Z,9.07
2019-06-26T00:08:07.570Z,9.20
2019-06-26T00:10:36.458Z,9.57
2019-06-26T00:13:05.400Z,9.17
2019-06-26T00:15:34.472Z,9.53
2019-06-26T00:18:03.380Z,8.90
2019-06-26T00:20:32.449Z,8.77
2019-06-26T00:23:01.468Z,9.73
2019-06-26T00:25:30.393Z,9.40
2019-06-26T00:27:59.383Z,9.73
2019-06-26T00:30:28.782Z,9.40
2019-06-26T00:32:57.687Z,9.80
2019-06-26T00:35:26.780Z,8.93
2019-06-26T00:37:55.897Z,8.67
2019-06-26T00:40:24.303Z,10.60
2019-06-26T00:42:53.552Z,9.70
2019-06-26T00:45:22.503Z,10.33
2019-06-26T00:47:51.493Z,10.43
2019-06-26T00:50:20.498Z,10.67
2019-06-26T00:52:49.813Z,9.00
2019-06-26T00:55:18.971Z,9.00
2019-06-26T00:57:47.969Z,9.60
2019-06-26T01:00:16.987Z,10.30
2019-06-26T01:02:45.523Z,9.20
2019-06-26T01:05:14.653Z,9.20
2019-06-26T01:07:43.567Z,8.63
2019-06-26T01:10:12.496Z,8.03
2019-06-26T01:12:41.556Z,8.30
2019-06-26T01:15:10.748Z,8.53
2019-06-26T01:17:39.823Z,11.53
2019-06-26T01:20:08.974Z,9.30
2019-06-26T01:22:37.948Z,9.70
2019-06-26T01:25:06.845Z,9.20
2019-06-26T01:27:35.693Z,9.13
2019-06-26T01:30:04.927Z,9.70
2019-06-26T01:32:34.326Z,11.03
2019-06-26T01:35:03.561Z,9.40
2019-06-26T01:37:32.509Z,9.13
2019-06-26T01:40:01.629Z,9.00
2019-06-26T01:42:30.591Z,9.50
2019-06-26T01:44:59.594Z,10.67
2019-06-26T01:47:28.196Z,9.57
2019-06-26T01:49:57.368Z,10.40
2019-06-26T01:52:26.326Z,9.33
2019-06-26T01:54:55.378Z,9.10
2019-06-26T01:57:24.499Z,9.37
2019-06-26T01:59:53.514Z,8.60
2019-06-26T02:02:22.543Z,8.43
2019-06-26T02:04:51.685Z,9.83
2019-06-26T02:07:20.640Z,9.70
2019-06-26T02:09:49.293Z,8.60
2019-06-26T02:12:18.380Z,9.00
2019-06-26T02:14:47.444Z,9.77
2019-06-26T02:17:16.434Z,9.53
2019-06-26T02:19:45.478Z,8.87
2019-06-26T02:22:14.542Z,9.00
2019-06-26T02:24:43.578Z,8.00
2019-06-26T02:27:13.001Z,8.03
2019-06-26T02:29:41.689Z,8.40
2019-06-26T02:32:10.579Z,8.07
2019-06-26T02:34:39.645Z,8.67
2019-06-26T02:37:08.717Z,7.93
2019-06-26T02:39:37.683Z,9.17
2019-06-26T02:42:06.697Z,7.90
2019-06-26T02:44:52.497Z,8.73
2019-06-26T02:47:19.384Z,8.30
2019-06-26T02:49:37.253Z,8.03
2019-06-26T02:52:05.960Z,7.43
2019-06-26T02:54:34.911Z,8.10
2019-06-26T02:57:03.895Z,8.40
2019-06-26T02:59:33.075Z,8.67
2019-06-26T03:02:02.030Z,8.70
2019-06-26T03:04:31.037Z,8.70
2019-06-26T03:07:00.053Z,8.93
2019-06-26T03:09:29.170Z,8.80
2019-06-26T03:11:58.162Z,9.50
2019-06-26T03:14:26.682Z,9.60
2019-06-26T03:16:55.717Z,9.20
2019-06-26T03:19:24.817Z,8.60
2019-06-26T03:21:53.876Z,8.83
2019-06-26T03:24:22.821Z,8.80
2019-06-26T03:26:51.873Z,9.33
2019-06-26T03:29:20.837Z,7.50
2019-06-26T03:31:49.922Z,7.70
2019-06-26T03:34:18.469Z,8.70
2019-06-26T03:36:47.358Z,9.13
2019-06-26T03:39:16.514Z,9.03
2019-06-26T03:41:45.691Z,9.73
2019-06-26T03:44:14.572Z,9.30
2019-06-26T03:46:43.563Z,9.47
2019-06-26T03:49:12.558Z,9.53
2019-06-26T03:51:41.662Z,9.00
2019-06-26T03:54:10.621Z,9.57
2019-06-26T03:56:39.195Z,8.20
2019-06-26T03:59:08.127Z,8.23
2019-06-26T04:01:37.058Z,8.33
2019-06-26T04:04:06.142Z,8.87
2019-06-26T04:06:35.237Z,8.43
2019-06-26T04:09:04.564Z,9.33
2019-06-26T04:11:33.503Z,9.37
2019-06-26T04:14:02.469Z,9.97
2019-06-26T04:16:31.602Z,9.83
2019-06-26T04:19:00.357Z,10.30
2019-06-26T04:21:29.305Z,10.63
2019-06-26T04:23:58.311Z,10.73
2019-06-26T04:26:27.343Z,10.47
2019-06-26T04:28:56.393Z,9.93
2019-06-26T04:31:25.513Z,8.37
2019-06-26T04:33:54.494Z,9.53
2019-06-26T04:36:23.571Z,9.97
2019-06-26T04:38:52.578Z,9.93
2019-06-26T04:41:21.261Z,10.23
2019-06-26T04:43:50.430Z,9.87
2019-06-26T04:46:19.575Z,9.20
2019-06-26T04:48:48.751Z,9.73
2019-06-26T04:51:17.953Z,10.73
2019-06-26T04:53:46.937Z,9.50
2019-06-26T04:56:15.918Z,10.63
2019-06-26T04:58:44.957Z,8.57
2019-06-26T05:01:13.855Z,8.90
2019-06-26T05:03:42.476Z,8.87
2019-06-26T05:06:11.555Z,8.67
2019-06-26T05:08:40.646Z,8.47
2019-06-26T05:11:12.665Z,8.63
2019-06-26T05:13:40.531Z,8.43
2019-06-26T05:16:14.944Z,8.67
2019-06-26T05:18:40.269Z,7.83
2019-06-26T05:21:09.335Z,8.30
2019-06-26T05:23:38.319Z,8.40
2019-06-26T05:26:07.294Z,9.30
2019-06-26T05:28:36.294Z,7.97
2019-06-26T05:31:05.211Z,7.30
2019-06-26T05:33:34.347Z,8.30
2019-06-26T05:36:03.363Z,8.57
2019-06-26T05:38:32.793Z,7.80
2019-06-26T05:41:01.663Z,7.67
2019-06-26T05:43:30.546Z,8.60
2019-06-26T05:45:59.605Z,7.37
2019-06-26T05:48:28.177Z,7.77
2019-06-26T05:50:57.299Z,9.03
2019-06-26T05:53:26.524Z,8.63
2019-06-26T05:55:55.442Z,8.20
2019-06-26T05:58:24.663Z,9.20
2019-06-26T06:00:53.660Z,11.00
2019-06-26T06:03:22.655Z,10.50
2019-06-26T06:05:51.785Z,9.87
2019-06-26T06:08:20.760Z,9.30
2019-06-26T06:10:49.286Z,6.50
2019-06-26T06:13:18.520Z,7.67
2019-06-26T06:15:47.635Z,6.53
2019-06-26T06:18:16.812Z,6.20
2019-06-26T06:20:45.942Z,6.80
2019-06-26T06:23:15.373Z,7.27
2019-06-26T06:25:44.617Z,5.80
2019-06-26T06:28:13.530Z,6.70
2019-06-26T06:30:42.678Z,6.07
2019-06-26T06:33:11.300Z,6.80
2019-06-26T06:35:40.413Z,6.73
2019-06-26T06:38:09.478Z,7.00
2019-06-26T06:40:38.761Z,7.63
2019-06-26T06:43:07.953Z,6.20
2019-06-26T06:45:36.948Z,6.10
2019-06-26T06:48:06.188Z,6.50
2019-06-26T06:50:35.276Z,5.43
2019-06-26T06:53:03.900Z,6.30
2019-06-26T06:55:32.942Z,5.97
2019-06-26T06:58:02.031Z,6.20
2019-06-26T07:00:31.172Z,4.97
2019-06-26T07:03:00.344Z,6.13
2019-06-26T07:05:29.617Z,6.60
2019-06-26T07:07:58.749Z,5.50
2019-06-26T07:10:27.861Z,5.73
2019-06-26T07:12:57.001Z,5.83
2019-06-26T07:15:25.690Z,6.17
2019-06-26T07:17:55.005Z,6.30
2019-06-26T07:20:24.147Z,5.60
2019-06-26T07:22:53.248Z,6.10
2019-06-26T07:25:22.373Z,5.77
2019-06-26T07:27:51.554Z,7.20
2019-06-26T07:30:20.884Z,8.40
2019-06-26T07:32:50.017Z,6.97
2019-06-26T07:35:19.116Z,6.30
2019-06-26T07:37:48.292Z,5.97
2019-06-26T07:40:17.653Z,6.13
2019-06-26T07:42:46.741Z,6.10
2019-06-26T07:45:15.762Z,6.53
2019-06-26T07:47:45.034Z,5.73
2019-06-26T07:50:13.917Z,5.53
2019-06-26T07:52:43.057Z,6.17
2019-06-26T07:55:12.547Z,6.00
2019-06-26T07:57:41.700Z,4.93
2019-06-26T08:00:10.964Z,4.90
2019-06-26T08:02:40.088Z,5.30
2019-06-26T08:05:08.630Z,5.53
2019-06-26T08:07:37.789Z,5.70
2019-06-26T08:10:07.224Z,5.20
2019-06-26T08:12:36.404Z,6.20
2019-06-26T08:15:05.831Z,5.60
2019-06-26T08:17:34.599Z,5.37
2019-06-26T08:20:03.694Z,6.30
2019-06-26T08:22:32.797Z,4.93
2019-06-26T08:25:01.960Z,5.00
2019-06-26T08:27:31.066Z,5.50
2019-06-26T08:30:00.271Z,5.70
2019-06-26T08:32:29.514Z,5.57
2019-06-26T08:34:58.773Z,6.20
2019-06-26T08:37:28.056Z,5.60
2019-06-26T08:39:57.692Z,5.33
2019-06-26T08:42:26.870Z,5.30
2019-06-26T08:44:56.272Z,5.60
2019-06-26T08:47:24.908Z,5.90
2019-06-26T08:49:53.959Z,5.50
2019-06-26T08:52:22.949Z,5.70
2019-06-26T08:54:52.114Z,5.90
2019-06-26T08:57:21.553Z,4.80
2019-06-26T08:59:50.681Z,5.07
2019-06-26T09:02:19.673Z,5.10
2019-06-26T09:04:48.846Z,5.57
2019-06-26T09:07:17.990Z,6.07
2019-06-26T09:09:47.148Z,5.70
2019-06-26T09:12:16.146Z,5.03
2019-06-26T09:14:45.243Z,5.40
2019-06-26T09:17:14.430Z,5.60
2019-06-26T09:19:43.455Z,5.47
2019-06-26T09:22:12.632Z,4.77
2019-06-26T09:24:41.754Z,6.53
2019-06-26T09:27:10.388Z,4.60
2019-06-26T09:29:39.578Z,5.27
2019-06-26T09:32:08.764Z,4.93
2019-06-26T09:34:37.896Z,5.30
2019-06-26T09:37:07.021Z,4.93
2019-06-26T09:39:36.180Z,5.00
2019-06-26T09:42:05.336Z,4.63
2019-06-26T09:44:34.474Z,6.00
2019-06-26T09:47:03.238Z,5.30
2019-06-26T09:49:32.583Z,5.63
2019-06-26T09:52:01.974Z,4.60
2019-06-26T09:54:31.055Z,5.10
2019-06-26T09:57:00.522Z,5.93
2019-06-26T09:59:29.706Z,4.80
2019-06-26T10:01:58.788Z,5.73
2019-06-26T10:04:28.019Z,4.50
2019-06-26T10:06:57.177Z,5.30
2019-06-26T10:09:25.835Z,4.43
2019-06-26T10:11:55.241Z,4.67
2019-06-26T10:14:24.159Z,5.13
2019-06-26T10:16:53.275Z,5.27
2019-06-26T10:19:22.455Z,4.57
2019-06-26T10:21:51.517Z,6.00
2019-06-26T10:24:20.674Z,5.10
2019-06-26T10:26:49.702Z,4.90
2019-06-26T10:29:18.847Z,5.70
2019-06-26T10:31:47.475Z,6.73
2019-06-26T10:34:17.034Z,4.40
2019-06-26T10:36:46.438Z,5.07
2019-06-26T10:39:15.535Z,4.40
2019-06-26T10:41:44.510Z,5.10
2019-06-26T10:44:13.759Z,5.00
2019-06-26T10:46:42.932Z,6.00
2019-06-26T10:49:25.791Z,6.33
2019-06-26T10:51:42.858Z,5.20
2019-06-26T10:54:12.051Z,5.53
2019-06-26T10:56:41.216Z,5.90
2019-06-26T10:59:10.527Z,5.50
2019-06-26T11:01:39.769Z,4.77
2019-06-26T11:04:08.942Z,5.10
2019-06-26T11:06:38.096Z,5.53
2019-06-26T11:09:08.372Z,4.50
2019-06-26T11:11:37.544Z,4.90
2019-06-26T11:14:06.653Z,4.60
2019-06-26T11:16:35.656Z,5.23
2019-06-26T11:19:04.779Z,4.27
2019-06-26T11:21:34.043Z,6.67
2019-06-26T11:24:03.795Z,4.90
2019-06-26T11:26:32.928Z,4.87
2019-06-26T11:29:02.117Z,4.40
2019-06-26T11:31:31.281Z,6.10
2019-06-26T11:34:00.497Z,4.97
2019-06-26T11:36:29.726Z,5.10
2019-06-26T11:38:58.965Z,5.40
2019-06-26T11:41:28.121Z,4.80
2019-06-26T11:43:57.312Z,4.73
2019-06-26T11:46:26.443Z,4.07
2019-06-26T11:48:55.570Z,4.40
2019-06-26T11:51:24.627Z,4.80
2019-06-26T11:53:53.864Z,4.97
2019-06-26T11:56:23.149Z,4.07
2019-06-26T11:58:52.259Z,4.63
2019-06-26T12:01:20.910Z,5.07
2019-06-26T12:03:50.105Z,5.50
2019-06-26T12:06:19.528Z,4.43
2019-06-26T12:08:48.786Z,4.27
2019-06-26T12:11:18.012Z,4.80
2019-06-26T12:13:47.217Z,4.77
2019-06-26T12:16:16.309Z,4.20
2019-06-26T12:18:45.043Z,4.07
2019-06-26T12:21:14.448Z,5.60
2019-06-26T12:23:43.131Z,4.77
2019-06-26T12:26:12.344Z,5.20
2019-06-26T12:28:41.512Z,4.60
2019-06-26T12:31:10.634Z,4.50
2019-06-26T12:33:39.812Z,4.80
2019-06-26T12:36:08.986Z,4.67
2019-06-26T12:38:38.159Z,4.90
2019-06-26T12:41:07.211Z,4.27
2019-06-26T12:43:36.419Z,5.00
2019-06-26T12:46:05.036Z,4.50
2019-06-26T12:48:34.155Z,4.70
2019-06-26T12:51:03.339Z,4.30
2019-06-26T12:53:32.522Z,5.00
2019-06-26T12:56:01.771Z,4.67
2019-06-26T12:58:31.028Z,4.50
2019-06-26T13:01:00.251Z,4.27
2019-06-26T13:03:29.417Z,5.53
2019-06-26T13:05:58.561Z,4.57
2019-06-26T13:08:27.156Z,4.60
2019-06-26T13:10:56.356Z,4.60
2019-06-26T13:13:25.506Z,4.03
2019-06-26T13:15:54.582Z,5.50
2019-06-26T13:18:23.830Z,5.60
2019-06-26T13:20:53.799Z,5.77
2019-06-26T13:23:23.139Z,4.57
2019-06-26T13:25:52.201Z,4.70
2019-06-26T13:28:21.345Z,4.77
2019-06-26T13:30:53.078Z,5.10
2019-06-26T13:33:20.775Z,5.60
2019-06-26T13:35:49.881Z,4.90
2019-06-26T13:38:19.353Z,4.67
2019-06-26T13:40:48.563Z,5.00
2019-06-26T13:43:17.652Z,4.90
2019-06-26T13:45:46.741Z,5.23
2019-06-26T13:48:15.560Z,4.90
2019-06-26T13:50:44.148Z,5.17
2019-06-26T13:53:13.196Z,4.63
2019-06-26T13:55:42.601Z,5.00
2019-06-26T13:58:11.733Z,5.03
2019-06-26T14:00:40.862Z,5.07
2019-06-26T14:03:10.002Z,6.93
2019-06-26T14:05:39.408Z,5.00
2019-06-26T14:08:08.676Z,5.03
2019-06-26T14:10:37.707Z,5.80
2019-06-26T14:13:06.282Z,4.90
2019-06-26T14:15:35.348Z,5.30
2019-06-26T14:18:04.463Z,5.10
2019-06-26T14:20:33.588Z,4.80
2019-06-26T14:23:02.660Z,5.73
2019-06-26T14:25:31.664Z,5.97
2019-06-26T14:28:00.922Z,5.17
2019-06-26T14:30:30.080Z,6.00
2019-06-26T14:32:59.134Z,4.33
2019-06-26T14:35:27.644Z,5.27
2019-06-26T14:37:56.660Z,5.67
2019-06-26T14:40:25.805Z,5.13
2019-06-26T14:42:55.281Z,4.83
2019-06-26T14:45:24.807Z,4.97
2019-06-26T14:47:53.971Z,4.70
2019-06-26T14:50:23.029Z,6.30
2019-06-26T14:52:52.198Z,4.80
2019-06-26T14:55:20.839Z,4.80
2019-06-26T14:57:49.944Z,4.67
2019-06-26T15:00:20.232Z,5.47
2019-06-26T15:02:49.718Z,5.13
2019-06-26T15:05:18.976Z,5.17
2019-06-26T15:07:50.219Z,4.63
2019-06-26T15:10:19.129Z,5.40
2019-06-26T15:12:48.187Z,5.47
2019-06-26T15:15:16.906Z,5.80
2019-06-26T15:17:46.296Z,5.73
2019-06-26T15:20:17.740Z,5.63
2019-06-26T15:22:46.935Z,6.07
2019-06-26T15:25:17.018Z,5.20
2019-06-26T15:27:46.189Z,4.37
2019-06-26T15:30:15.255Z,5.47
2019-06-26T15:32:44.337Z,5.37
2019-06-26T15:35:13.304Z,5.37
2019-06-26T15:37:44.723Z,5.73
2019-06-26T15:40:13.980Z,4.87
2019-06-26T15:42:43.212Z,5.60
2019-06-26T15:45:13.817Z,6.67
2019-06-26T15:47:42.947Z,5.17
2019-06-26T15:50:12.146Z,6.93
2019-06-26T15:52:40.832Z,5.33
2019-06-26T15:55:10.006Z,5.67
2019-06-26T15:57:39.477Z,5.80
2019-06-26T16:00:08.764Z,5.90
2019-06-26T16:02:38.119Z,6.90
2019-06-26T16:05:07.574Z,5.57
2019-06-26T16:07:36.875Z,5.40
2019-06-26T16:10:06.180Z,4.70
2019-06-26T16:12:34.836Z,4.53
2019-06-26T16:15:04.316Z,6.43
2019-06-26T16:17:55.188Z,4.90
2019-06-26T16:20:24.267Z,4.50
2019-06-26T16:22:53.385Z,6.03
2019-06-26T16:25:22.547Z,6.07
2019-06-26T16:28:04.712Z,5.30
2019-06-26T16:30:22.560Z,5.70
2019-06-26T16:32:51.676Z,6.60
2019-06-26T16:35:20.349Z,6.07
2019-06-26T16:37:49.545Z,5.47
2019-06-26T16:40:18.795Z,5.60
2019-06-26T16:42:47.938Z,5.20
2019-06-26T16:45:17.756Z,5.27
2019-06-26T16:47:47.267Z,5.20
2019-06-26T16:50:16.238Z,6.77
2019-06-26T16:52:49.815Z,4.77
2019-06-26T16:55:16.006Z,7.27
2019-06-26T16:57:45.431Z,4.60
2019-06-26T17:00:14.577Z,5.50
2019-06-26T17:02:43.658Z,6.07
2019-06-26T17:05:12.787Z,5.53
2019-06-26T17:07:41.964Z,5.07
2019-06-26T17:10:10.622Z,4.90
2019-06-26T17:12:39.763Z,5.13
2019-06-26T17:15:09.298Z,5.30
2019-06-26T17:17:38.456Z,5.90
2019-06-26T17:20:07.675Z,5.57
2019-06-26T17:22:36.674Z,5.90
2019-06-26T17:25:05.933Z,5.80
2019-06-26T17:27:35.043Z,6.23
2019-06-26T17:30:04.599Z,5.20
2019-06-26T17:32:33.694Z,6.47
2019-06-26T17:35:02.839Z,6.20
2019-06-26T17:37:31.988Z,5.40
2019-06-26T17:40:01.169Z,5.20
2019-06-26T17:42:30.603Z,5.67
2019-06-26T17:44:59.723Z,5.30
2019-06-26T17:47:28.898Z,6.27
2019-06-26T17:49:57.981Z,4.87
2019-06-26T17:52:27.117Z,6.80
2019-06-26T17:54:56.249Z,5.57
2019-06-26T17:57:25.407Z,6.10
2019-06-26T17:59:53.933Z,5.67
2019-06-26T18:02:23.350Z,5.10
2019-06-26T18:04:52.459Z,6.03
2019-06-26T18:07:21.709Z,5.10
2019-06-26T18:09:50.869Z,6.00
2019-06-26T18:12:20.075Z,6.20
2019-06-26T18:14:49.643Z,6.13
2019-06-26T18:17:22.431Z,5.73
2019-06-26T18:19:49.650Z,5.80
2019-06-26T18:22:18.371Z,4.63
2019-06-26T18:24:47.301Z,5.00
2019-06-26T18:27:16.518Z,6.10
2019-06-26T18:29:45.684Z,5.60
2019-06-26T18:32:14.895Z,7.30
2019-06-26T18:34:46.814Z,5.07
2019-06-26T18:37:14.907Z,5.30
2019-06-26T18:39:44.119Z,6.30
2019-06-26T18:42:13.242Z,5.43
2019-06-26T18:44:42.117Z,5.83
2019-06-26T18:47:11.445Z,6.17
2019-06-26T18:49:40.582Z,5.97
2019-06-26T18:52:09.995Z,7.03
2019-06-26T18:54:39.140Z,5.57
2019-06-26T18:57:08.225Z,6.53
2019-06-26T18:59:37.270Z,6.20
2019-06-26T19:02:06.417Z,6.80
2019-06-26T19:04:35.480Z,5.80
2019-06-26T19:07:04.569Z,6.97
2019-06-26T19:09:33.975Z,6.40
2019-06-26T19:12:03.152Z,6.27
2019-06-26T19:14:32.316Z,5.90
2019-06-26T19:17:01.470Z,7.40
2019-06-26T19:19:30.696Z,6.60
2019-06-26T19:21:59.807Z,6.07
2019-06-26T19:24:29.013Z,7.87
2019-06-26T19:26:58.086Z,7.70
2019-06-26T19:29:27.197Z,7.10
2019-06-26T19:31:56.329Z,7.60
2019-06-26T19:34:25.327Z,7.73
2019-06-26T19:36:54.651Z,7.60
2019-06-26T19:39:23.842Z,7.40
2019-06-26T19:41:52.869Z,7.00
2019-06-26T19:44:21.930Z,7.50
2019-06-26T19:46:51.074Z,7.17
2019-06-26T19:49:20.266Z,7.07
2019-06-26T19:51:48.769Z,6.50
2019-06-26T19:54:27.179Z,7.83
2019-06-26T19:56:48.757Z,8.00
2019-06-26T19:59:17.858Z,8.17
2019-06-26T20:01:46.973Z,7.50
2019-06-26T20:04:16.122Z,8.10
2019-06-26T20:06:45.260Z,8.40
2019-06-26T20:09:14.405Z,7.90
2019-06-26T20:11:43.369Z,7.63
2019-06-26T20:14:12.543Z,7.63
2019-06-26T20:16:41.616Z,8.20
2019-06-26T20:19:10.843Z,7.47
2019-06-26T20:21:40.007Z,8.83
2019-06-26T20:24:09.015Z,7.90
2019-06-26T20:26:37.638Z,8.30
2019-06-26T20:29:06.717Z,8.20
2019-06-26T20:31:35.879Z,7.40
2019-06-26T20:34:05.045Z,8.90
2019-06-26T20:36:34.111Z,9.50
2019-06-26T20:39:03.343Z,7.40
2019-06-26T20:41:32.418Z,8.83
2019-06-26T20:44:01.573Z,8.50
2019-06-26T20:46:30.788Z,8.27
2019-06-26T20:49:00.043Z,8.20
2019-06-26T20:51:29.461Z,9.60
2019-06-26T20:53:58.552Z,9.43
2019-06-26T20:56:27.727Z,8.50
2019-06-26T20:58:56.898Z,10.23
2019-06-26T21:01:26.476Z,8.83
2019-06-26T21:03:55.315Z,8.30
2019-06-26T21:06:24.481Z,8.30
2019-06-26T21:08:53.173Z,8.93
2019-06-26T21:11:22.319Z,8.17
2019-06-26T21:13:51.398Z,7.90
2019-06-26T21:16:20.505Z,8.57
2019-06-26T21:18:49.713Z,8.13
2019-06-26T21:21:18.819Z,8.77
2019-06-26T21:23:47.965Z,8.40
2019-06-26T21:26:17.209Z,9.40
2019-06-26T21:28:46.375Z,7.63
2019-06-26T21:31:14.826Z,8.97
2019-06-26T21:33:44.014Z,9.17
2019-06-26T21:36:13.288Z,9.73
2019-06-26T21:38:42.428Z,8.70
2019-06-26T21:41:11.681Z,8.70
2019-06-26T21:43:40.868Z,10.00
2019-06-26T21:46:10.069Z,8.93
2019-06-26T21:48:39.325Z,8.90
2019-06-26T21:51:08.491Z,8.13
2019-06-26T21:53:37.225Z,8.43
2019-06-26T21:56:06.728Z,9.97
2019-06-26T21:58:35.425Z,8.63
2019-06-26T22:01:04.450Z,10.00
2019-06-26T22:03:33.701Z,9.57
2019-06-26T22:06:02.960Z,9.47
2019-06-26T22:08:32.135Z,9.27
2019-06-26T22:11:00.816Z,9.47
2019-06-26T22:13:29.330Z,8.97
2019-06-26T22:15:58.094Z,9.40
2019-06-26T22:18:26.903Z,9.03
2019-06-26T22:20:55.985Z,9.47
2019-06-26T22:23:25.017Z,9.23
2019-06-26T22:25:53.854Z,8.60
2019-06-26T22:28:22.843Z,9.60
2019-06-26T22:30:51.874Z,9.03
2019-06-26T22:33:20.640Z,8.73
2019-06-26T22:35:49.104Z,9.07
2019-06-26T22:38:17.943Z,9.37
2019-06-26T22:40:47.104Z,9.10
2019-06-26T22:43:16.290Z,10.20
2019-06-26T22:45:45.050Z,8.70
2019-06-26T22:48:13.745Z,11.93
2019-06-26T22:50:42.576Z,10.27
2019-06-26T22:53:11.754Z,9.90
2019-06-26T22:55:40.674Z,9.57
2019-06-26T22:58:09.154Z,8.40
2019-06-26T23:00:38.243Z,11.50
2019-06-26T23:03:06.987Z,10.03
2019-06-26T23:05:37.236Z,10.67
2019-06-26T23:08:05.934Z,9.50
2019-06-26T23:10:34.945Z,10.13
2019-06-26T23:13:03.992Z,9.53
2019-06-26T23:15:32.742Z,9.80
2019-06-26T23:18:01.434Z,10.97
2019-06-26T23:20:30.093Z,9.00
2019-06-26T23:22:58.831Z,9.70
2019-06-26T23:25:27.634Z,10.20
2019-06-26T23:27:56.338Z,8.77
2019-06-26T23:30:25.061Z,10.23
2019-06-26T23:32:53.814Z,8.77
2019-06-26T23:35:22.521Z,9.10
2019-06-26T23:37:51.255Z,9.63
2019-06-26T23:40:20.536Z,10.23
2019-06-26T23:42:48.859Z,9.73
2019-06-26T23:45:17.687Z,10.43
2019-06-26T23:47:46.384Z,10.43
2019-06-26T23:50:15.438Z,10.03
2019-06-26T23:52:44.208Z,9.27
2019-06-26T23:55:13.295Z,9.00
2019-06-26T23:57:58.005Z,9.23
